X  Luk Metar data     EKBI Billund Airport
Temperatur
16°C Temperatur
14°C Duggpunkt
88% Fugtighed



Vind
5 M/S
12 MPT
19 KM/T
10 KNOB



210°
SSV
Nuværende forhold

Let  Byger, Regn Let Byger, Regn
Tryk 1008.81 (hPa) - 29.79 (inHg)
Sigt 6 (mil) - 9.7 (km)
Lufthavn
Lufthavnskode EKBI

Lokation: Billund Airport
Afstand: 20 (km)

Metar:
EKBI 140850Z 21010KT 9999 -SHRA BKN012 SCT020CB 16/14 Q1009

Tid: 14-07-2024 08:50 CEST